sensor_id;sensor_type;location;lat;lon;timestamp;pressure;altitude;pressure_sealevel;temperature;humidity
64908;BME280;64365;-1.756;110.040;2022-11-15T00:01:49;100775.09;;;8.54;84.89
64908;BME280;64365;-1.756;110.040;2022-11-15T00:04:16;100780.66;;;8.69;83.83
64908;BME280;64365;-1.756;110.040;2022-11-15T00:06:43;100781.78;;;8.68;84.38
64908;BME280;64365;-1.756;110.040;2022-11-15T00:09:09;100789.72;;;8.68;84.78
64908;BME280;64365;-1.756;110.040;2022-11-15T00:11:37;100783.72;;;8.71;84.47
64908;BME280;64365;-1.756;110.040;2022-11-15T00:14:03;100786.38;;;8.71;83.75
64908;BME280;64365;-1.756;110.040;2022-11-15T00:16:30;100774.53;;;8.65;83.69
64908;BME280;64365;-1.756;110.040;2022-11-15T00:18:56;100770.69;;;8.62;84.44
64908;BME280;64365;-1.756;110.040;2022-11-15T00:21:23;100761.97;;;8.62;85.09
64908;BME280;64365;-1.756;110.040;2022-11-15T00:23:50;100768.81;;;8.63;85.54
64908;BME280;64365;-1.756;110.040;2022-11-15T00:26:16;100759.66;;;8.60;85.82
64908;BME280;64365;-1.756;110.040;2022-11-15T00:28:44;100758.28;;;8.66;86.28
64908;BME280;64365;-1.756;110.040;2022-11-15T00:31:12;100757.09;;;8.64;87.49
64908;BME280;64365;-1.756;110.040;2022-11-15T00:33:39;100763.94;;;8.65;87.83
64908;BME280;64365;-1.756;110.040;2022-11-15T00:36:07;100769.72;;;8.70;87.32
64908;BME280;64365;-1.756;110.040;2022-11-15T00:38:36;100765.94;;;8.71;87.62
64908;BME280;64365;-1.756;110.040;2022-11-15T00:41:05;100763.78;;;8.77;87.30
64908;BME280;64365;-1.756;110.040;2022-11-15T00:43:32;100766.78;;;8.75;87.58
64908;BME280;64365;-1.756;110.040;2022-11-15T00:46:00;100752.03;;;8.78;87.30
64908;BME280;64365;-1.756;110.040;2022-11-15T00:48:27;100755.88;;;8.81;87.08
64908;BME280;64365;-1.756;110.040;2022-11-15T00:50:54;100748.63;;;8.77;86.65
64908;BME280;64365;-1.756;110.040;2022-11-15T00:53:20;100750.88;;;8.75;86.70
64908;BME280;64365;-1.756;110.040;2022-11-15T00:55:47;100734.19;;;8.75;86.38
64908;BME280;64365;-1.756;110.040;2022-11-15T00:58:13;100736.03;;;8.71;88.54
64908;BME280;64365;-1.756;110.040;2022-11-15T01:00:40;100745.22;;;8.77;88.12
64908;BME280;64365;-1.756;110.040;2022-11-15T01:03:07;100735.81;;;8.80;88.78
64908;BME280;64365;-1.756;110.040;2022-11-15T01:05:36;100734.34;;;8.82;87.99
64908;BME280;64365;-1.756;110.040;2022-11-15T01:08:03;100735.09;;;8.83;88.76
64908;BME280;64365;-1.756;110.040;2022-11-15T01:10:30;100732.91;;;8.88;88.04
64908;BME280;64365;-1.756;110.040;2022-11-15T01:12:57;100729.50;;;8.88;88.08
64908;BME280;64365;-1.756;110.040;2022-11-15T01:15:23;100727.25;;;8.90;88.04
64908;BME280;64365;-1.756;110.040;2022-11-15T01:17:50;100719.19;;;8.83;88.16
64908;BME280;64365;-1.756;110.040;2022-11-15T01:20:18;100737.31;;;8.81;88.24
64908;BME280;64365;-1.756;110.040;2022-11-15T01:22:44;100733.19;;;8.83;88.67
64908;BME280;64365;-1.756;110.040;2022-11-15T01:25:11;100728.31;;;8.85;88.62
64908;BME280;64365;-1.756;110.040;2022-11-15T01:27:38;100721.22;;;8.89;88.86
64908;BME280;64365;-1.756;110.040;2022-11-15T01:30:06;100728.44;;;8.92;88.77
64908;BME280;64365;-1.756;110.040;2022-11-15T01:32:33;100720.91;;;8.95;88.54
64908;BME280;64365;-1.756;110.040;2022-11-15T01:35:00;100724.38;;;8.99;88.39
64908;BME280;64365;-1.756;110.040;2022-11-15T01:37:28;100713.34;;;8.97;88.70
64908;BME280;64365;-1.756;110.040;2022-11-15T01:39:54;100716.44;;;8.99;89.13
64908;BME280;64365;-1.756;110.040;2022-11-15T01:42:21;100707.34;;;9.00;88.50
64908;BME280;64365;-1.756;110.040;2022-11-15T01:44:48;100714.47;;;8.96;89.35
64908;BME280;64365;-1.756;110.040;2022-11-15T01:47:17;100712.25;;;8.98;89.67
64908;BME280;64365;-1.756;110.040;2022-11-15T01:49:50;100707.00;;;9.01;90.63
64908;BME280;64365;-1.756;110.040;2022-11-15T01:52:20;100699.56;;;9.10;90.53
64908;BME280;64365;-1.756;110.040;2022-11-15T01:54:54;100706.03;;;9.13;90.46
64908;BME280;64365;-1.756;110.040;2022-11-15T01:57:22;100700.41;;;9.15;90.33
64908;BME280;64365;-1.756;110.040;2022-11-15T01:59:49;100683.34;;;9.16;90.54
64908;BME280;64365;-1.756;110.040;2022-11-15T02:02:15;100706.47;;;9.15;90.51
64908;BME280;64365;-1.756;110.040;2022-11-15T02:04:45;100691.38;;;9.19;91.01
64908;BME280;64365;-1.756;110.040;2022-11-15T02:07:15;100691.84;;;9.25;91.06
64908;BME280;64365;-1.756;110.040;2022-11-15T02:09:43;100688.00;;;9.22;91.36
64908;BME280;64365;-1.756;110.040;2022-11-15T02:12:13;100681.13;;;9.18;91.37
64908;BME280;64365;-1.756;110.040;2022-11-15T02:14:42;100680.84;;;9.23;91.90
64908;BME280;64365;-1.756;110.040;2022-11-15T02:17:23;100680.50;;;9.28;92.69
64908;BME280;64365;-1.756;110.040;2022-11-15T02:23:04;100670.41;;;9.37;91.47
64908;BME280;64365;-1.756;110.040;2022-11-15T02:25:39;100667.00;;;9.37;91.74
64908;BME280;64365;-1.756;110.040;2022-11-15T02:28:30;100654.84;;;9.36;92.33
64908;BME280;64365;-1.756;110.040;2022-11-15T02:31:03;100658.31;;;9.40;91.72
64908;BME280;64365;-1.756;110.040;2022-11-15T02:33:36;100647.34;;;9.41;92.10
64908;BME280;64365;-1.756;110.040;2022-11-15T02:36:11;100644.03;;;9.48;91.23
64908;BME280;64365;-1.756;110.040;2022-11-15T02:38:46;100658.44;;;9.47;91.58
64908;BME280;64365;-1.756;110.040;2022-11-15T02:41:16;100642.91;;;9.49;92.27
64908;BME280;64365;-1.756;110.040;2022-11-15T02:43:48;100638.41;;;9.53;92.66
64908;BME280;64365;-1.756;110.040;2022-11-15T02:46:27;100635.84;;;9.60;92.78
64908;BME280;64365;-1.756;110.040;2022-11-15T02:49:16;100631.00;;;9.66;92.07
64908;BME280;64365;-1.756;110.040;2022-11-15T02:51:44;100622.69;;;9.68;92.32
64908;BME280;64365;-1.756;110.040;2022-11-15T02:54:13;100619.59;;;9.62;93.01
64908;BME280;64365;-1.756;110.040;2022-11-15T02:56:42;100620.72;;;9.65;93.13
64908;BME280;64365;-1.756;110.040;2022-11-15T03:02:20;100607.50;;;9.68;93.50
64908;BME280;64365;-1.756;110.040;2022-11-15T03:04:54;100609.47;;;9.75;93.20
64908;BME280;64365;-1.756;110.040;2022-11-15T03:07:25;100612.88;;;9.75;93.77
64908;BME280;64365;-1.756;110.040;2022-11-15T03:10:02;100615.22;;;9.81;94.01
64908;BME280;64365;-1.756;110.040;2022-11-15T03:12:36;100614.88;;;9.82;93.90
64908;BME280;64365;-1.756;110.040;2022-11-15T03:15:11;100608.44;;;9.83;94.01
64908;BME280;64365;-1.756;110.040;2022-11-15T03:17:47;100620.28;;;9.89;94.22
64908;BME280;64365;-1.756;110.040;2022-11-15T03:20:16;100612.69;;;9.91;93.38
64908;BME280;64365;-1.756;110.040;2022-11-15T03:22:45;100620.66;;;9.91;93.25
64908;BME280;64365;-1.756;110.040;2022-11-15T03:25:16;100619.91;;;9.91;94.19
64908;BME280;64365;-1.756;110.040;2022-11-15T03:27:47;100613.84;;;9.90;94.24
64908;BME280;64365;-1.756;110.040;2022-11-15T03:30:16;100623.72;;;9.93;94.66
64908;BME280;64365;-1.756;110.040;2022-11-15T03:32:47;100608.97;;;9.96;94.70
64908;BME280;64365;-1.756;110.040;2022-11-15T03:35:18;100612.78;;;9.99;95.38
64908;BME280;64365;-1.756;110.040;2022-11-15T03:37:50;100602.56;;;10.01;94.91
64908;BME280;64365;-1.756;110.040;2022-11-15T03:40:21;100608.28;;;10.03;95.28
64908;BME280;64365;-1.756;110.040;2022-11-15T03:42:54;100619.66;;;10.03;95.22
64908;BME280;64365;-1.756;110.040;2022-11-15T03:45:27;100619.28;;;10.05;96.03
64908;BME280;64365;-1.756;110.040;2022-11-15T03:48:01;100615.19;;;10.11;95.60
64908;BME280;64365;-1.756;110.040;2022-11-15T03:50:29;100617.88;;;10.15;95.98
64908;BME280;64365;-1.756;110.040;2022-11-15T03:52:56;100616.41;;;10.21;96.30
64908;BME280;64365;-1.756;110.040;2022-11-15T03:55:24;100614.56;;;10.25;96.01
64908;BME280;64365;-1.756;110.040;2022-11-15T03:57:53;100613.44;;;10.29;96.67
64908;BME280;64365;-1.756;110.040;2022-11-15T04:00:21;100605.88;;;10.32;96.53
64908;BME280;64365;-1.756;110.040;2022-11-15T04:02:47;100605.97;;;10.39;95.74
64908;BME280;64365;-1.756;110.040;2022-11-15T04:05:15;100599.94;;;10.42;95.59
64908;BME280;64365;-1.756;110.040;2022-11-15T04:07:42;100610.22;;;10.43;96.21
64908;BME280;64365;-1.756;110.040;2022-11-15T04:10:09;100607.94;;;10.45;96.88
64908;BME280;64365;-1.756;110.040;2022-11-15T04:12:37;100608.72;;;10.46;97.02
64908;BME280;64365;-1.756;110.040;2022-11-15T04:15:07;100605.69;;;10.51;96.25
64908;BME280;64365;-1.756;110.040;2022-11-15T04:17:36;100598.47;;;10.48;96.43
64908;BME280;64365;-1.756;110.040;2022-11-15T04:20:03;100594.72;;;10.53;96.79
64908;BME280;64365;-1.756;110.040;2022-11-15T04:22:52;100612.22;;;10.57;97.60
64908;BME280;64365;-1.756;110.040;2022-11-15T04:25:36;100597.81;;;10.62;97.38
64908;BME280;64365;-1.756;110.040;2022-11-15T04:28:03;100594.81;;;10.64;97.91
64908;BME280;64365;-1.756;110.040;2022-11-15T04:30:30;100587.53;;;10.60;97.75
64908;BME280;64365;-1.756;110.040;2022-11-15T04:32:56;100583.47;;;10.70;97.57
64908;BME280;64365;-1.756;110.040;2022-11-15T04:35:23;100591.44;;;10.74;97.09
64908;BME280;64365;-1.756;110.040;2022-11-15T04:37:50;100586.53;;;10.76;97.28
64908;BME280;64365;-1.756;110.040;2022-11-15T04:40:16;100593.34;;;10.77;97.22
64908;BME280;64365;-1.756;110.040;2022-11-15T04:42:43;100585.81;;;10.83;97.10
64908;BME280;64365;-1.756;110.040;2022-11-15T04:45:09;100594.56;;;10.83;97.06
64908;BME280;64365;-1.756;110.040;2022-11-15T04:47:36;100585.03;;;10.82;97.67
64908;BME280;64365;-1.756;110.040;2022-11-15T04:50:03;100583.16;;;10.86;96.37
64908;BME280;64365;-1.756;110.040;2022-11-15T04:52:30;100590.38;;;10.82;97.22
64908;BME280;64365;-1.756;110.040;2022-11-15T04:54:58;100581.66;;;10.85;97.04
64908;BME280;64365;-1.756;110.040;2022-11-15T04:57:24;100582.78;;;10.88;97.27
64908;BME280;64365;-1.756;110.040;2022-11-15T04:59:51;100585.09;;;10.89;97.20
64908;BME280;64365;-1.756;110.040;2022-11-15T05:02:17;100591.59;;;10.92;96.92
64908;BME280;64365;-1.756;110.040;2022-11-15T05:04:44;100597.66;;;10.92;96.82
64908;BME280;64365;-1.756;110.040;2022-11-15T05:07:09;100598.78;;;10.91;97.32
64908;BME280;64365;-1.756;110.040;2022-11-15T05:09:35;100599.19;;;10.93;97.33
64908;BME280;64365;-1.756;110.040;2022-11-15T05:12:04;100590.84;;;10.95;97.67
64908;BME280;64365;-1.756;110.040;2022-11-15T05:14:30;100607.56;;;10.99;96.95
64908;BME280;64365;-1.756;110.040;2022-11-15T05:16:57;100607.19;;;11.01;97.15
64908;BME280;64365;-1.756;110.040;2022-11-15T05:19:23;100604.94;;;11.03;97.25
64908;BME280;64365;-1.756;110.040;2022-11-15T05:21:50;100601.16;;;11.07;96.67
64908;BME280;64365;-1.756;110.040;2022-11-15T05:24:16;100609.50;;;11.06;97.01
64908;BME280;64365;-1.756;110.040;2022-11-15T05:26:43;100606.09;;;11.09;97.43
64908;BME280;64365;-1.756;110.040;2022-11-15T05:29:11;100603.47;;;11.12;97.31
64908;BME280;64365;-1.756;110.040;2022-11-15T05:31:39;100613.38;;;11.16;97.96
64908;BME280;64365;-1.756;110.040;2022-11-15T05:34:06;100611.88;;;11.18;97.71
64908;BME280;64365;-1.756;110.040;2022-11-15T05:36:36;100617.22;;;11.22;97.86
64908;BME280;64365;-1.756;110.040;2022-11-15T05:39:04;100617.59;;;11.24;97.47
64908;BME280;64365;-1.756;110.040;2022-11-15T05:41:34;100614.56;;;11.25;97.32
64908;BME280;64365;-1.756;110.040;2022-11-15T05:44:03;100612.66;;;11.29;97.67
64908;BME280;64365;-1.756;110.040;2022-11-15T05:46:33;100614.97;;;11.31;97.64
64908;BME280;64365;-1.756;110.040;2022-11-15T05:49:02;100620.69;;;11.33;97.67
64908;BME280;64365;-1.756;110.040;2022-11-15T05:51:30;100614.22;;;11.38;97.17
64908;BME280;64365;-1.756;110.040;2022-11-15T05:53:58;100613.09;;;11.39;96.87
64908;BME280;64365;-1.756;110.040;2022-11-15T05:56:25;100620.34;;;11.42;97.32
64908;BME280;64365;-1.756;110.040;2022-11-15T05:58:54;100608.56;;;11.43;96.95
64908;BME280;64365;-1.756;110.040;2022-11-15T06:01:21;100610.50;;;11.46;96.59
64908;BME280;64365;-1.756;110.040;2022-11-15T06:03:49;100612.38;;;11.45;97.07
64908;BME280;64365;-1.756;110.040;2022-11-15T06:06:16;100618.84;;;11.48;97.48
64908;BME280;64365;-1.756;110.040;2022-11-15T06:08:42;100628.75;;;11.51;97.74
64908;BME280;64365;-1.756;110.040;2022-11-15T06:11:09;100626.50;;;11.57;96.84
64908;BME280;64365;-1.756;110.040;2022-11-15T06:13:35;100626.88;;;11.59;96.90
64908;BME280;64365;-1.756;110.040;2022-11-15T06:16:02;100625.34;;;11.58;96.91
64908;BME280;64365;-1.756;110.040;2022-11-15T06:18:31;100634.50;;;11.60;97.16
64908;BME280;64365;-1.756;110.040;2022-11-15T06:21:01;100630.69;;;11.61;96.75
64908;BME280;64365;-1.756;110.040;2022-11-15T06:23:28;100633.38;;;11.65;96.63
64908;BME280;64365;-1.756;110.040;2022-11-15T06:25:57;100640.59;;;11.65;96.43
64908;BME280;64365;-1.756;110.040;2022-11-15T06:28:24;100632.59;;;11.65;96.69
64908;BME280;64365;-1.756;110.040;2022-11-15T06:30:50;100625.75;;;11.63;96.47
64908;BME280;64365;-1.756;110.040;2022-11-15T06:33:17;100629.56;;;11.62;97.18
64908;BME280;64365;-1.756;110.040;2022-11-15T06:35:43;100635.25;;;11.65;97.28
64908;BME280;64365;-1.756;110.040;2022-11-15T06:38:11;100631.09;;;11.67;97.34
64908;BME280;64365;-1.756;110.040;2022-11-15T06:40:39;100636.81;;;11.69;97.35
64908;BME280;64365;-1.756;110.040;2022-11-15T06:43:06;100645.97;;;11.75;97.61
64908;BME280;64365;-1.756;110.040;2022-11-15T06:45:33;100649.41;;;11.76;97.61
64908;BME280;64365;-1.756;110.040;2022-11-15T06:47:59;100639.09;;;11.74;97.18
64908;BME280;64365;-1.756;110.040;2022-11-15T06:50:26;100640.28;;;11.80;97.24
64908;BME280;64365;-1.756;110.040;2022-11-15T06:52:52;100648.28;;;11.84;97.29
64908;BME280;64365;-1.756;110.040;2022-11-15T06:55:21;100648.66;;;11.86;97.21
64908;BME280;64365;-1.756;110.040;2022-11-15T06:57:48;100650.97;;;11.91;97.05
64908;BME280;64365;-1.756;110.040;2022-11-15T07:00:16;100652.50;;;11.96;96.92
64908;BME280;64365;-1.756;110.040;2022-11-15T07:02:43;100663.19;;;12.00;96.84
64908;BME280;64365;-1.756;110.040;2022-11-15T07:05:09;100660.53;;;12.00;96.79
64908;BME280;64365;-1.756;110.040;2022-11-15T07:07:36;100654.81;;;11.98;96.05
64908;BME280;64365;-1.756;110.040;2022-11-15T07:10:03;100654.03;;;11.97;96.08
64908;BME280;64365;-1.756;110.040;2022-11-15T07:12:31;100664.69;;;11.97;95.89
64908;BME280;64365;-1.756;110.040;2022-11-15T07:14:58;100665.84;;;12.00;95.83
64908;BME280;64365;-1.756;110.040;2022-11-15T07:17:24;100663.19;;;12.00;95.97
64908;BME280;64365;-1.756;110.040;2022-11-15T07:19:51;100665.84;;;12.00;95.27
64908;BME280;64365;-1.756;110.040;2022-11-15T07:22:18;100666.97;;;11.99;95.55
64908;BME280;64365;-1.756;110.040;2022-11-15T07:24:44;100664.72;;;12.01;95.46
64908;BME280;64365;-1.756;110.040;2022-11-15T07:27:11;100666.63;;;12.00;95.93
64908;BME280;64365;-1.756;110.040;2022-11-15T07:29:38;100676.53;;;12.03;95.87
64908;BME280;64365;-1.756;110.040;2022-11-15T07:32:05;100674.63;;;12.04;95.86
64908;BME280;64365;-1.756;110.040;2022-11-15T07:34:31;100660.94;;;12.02;95.33
64908;BME280;64365;-1.756;110.040;2022-11-15T07:36:58;100665.47;;;11.98;94.91
64908;BME280;64365;-1.756;110.040;2022-11-15T07:39:24;100675.75;;;12.03;95.28
64908;BME280;64365;-1.756;110.040;2022-11-15T07:41:51;100674.63;;;12.04;95.20
64908;BME280;64365;-1.756;110.040;2022-11-15T07:44:39;100663.97;;;12.04;95.10
64908;BME280;64365;-1.756;110.040;2022-11-15T07:47:06;100659.00;;;12.02;94.53
64908;BME280;64365;-1.756;110.040;2022-11-15T07:49:33;100652.94;;;12.02;94.26
64908;BME280;64365;-1.756;110.040;2022-11-15T07:51:59;100665.47;;;12.01;94.72
64908;BME280;64365;-1.756;110.040;2022-11-15T07:54:26;100658.63;;;12.04;94.85
64908;BME280;64365;-1.756;110.040;2022-11-15T07:56:52;100671.59;;;12.09;94.67
64908;BME280;64365;-1.756;110.040;2022-11-15T07:59:19;100661.34;;;12.11;94.95
64908;BME280;64365;-1.756;110.040;2022-11-15T08:01:47;100656.00;;;12.15;95.14
64908;BME280;64365;-1.756;110.040;2022-11-15T08:04:13;100661.72;;;12.20;94.48
64908;BME280;64365;-1.756;110.040;2022-11-15T08:06:40;100660.59;;;12.21;93.60
64908;BME280;64365;-1.756;110.040;2022-11-15T08:09:06;100657.16;;;12.17;93.93
64908;BME280;64365;-1.756;110.040;2022-11-15T08:11:33;100652.94;;;12.16;94.02
64908;BME280;64365;-1.756;110.040;2022-11-15T08:13:59;100650.66;;;12.15;93.67
64908;BME280;64365;-1.756;110.040;2022-11-15T08:16:26;100659.03;;;12.13;93.38
64908;BME280;64365;-1.756;110.040;2022-11-15T08:18:53;100655.59;;;12.09;93.78
64908;BME280;64365;-1.756;110.040;2022-11-15T08:21:20;100660.97;;;12.12;94.33
64908;BME280;64365;-1.756;110.040;2022-11-15T08:23:47;100653.34;;;12.18;93.63
64908;BME280;64365;-1.756;110.040;2022-11-15T08:26:14;100650.28;;;12.16;93.77
64908;BME280;64365;-1.756;110.040;2022-11-15T08:28:41;100652.97;;;12.20;93.23
64908;BME280;64365;-1.756;110.040;2022-11-15T08:31:13;100651.06;;;12.20;93.29
64908;BME280;64365;-1.756;110.040;2022-11-15T08:33:39;100643.44;;;12.19;93.04
64908;BME280;64365;-1.756;110.040;2022-11-15T08:36:12;100635.09;;;12.17;92.96
64908;BME280;64365;-1.756;110.040;2022-11-15T08:38:39;100642.69;;;12.15;93.25
64908;BME280;64365;-1.756;110.040;2022-11-15T08:41:05;100641.53;;;12.08;93.70
64908;BME280;64365;-1.756;110.040;2022-11-15T08:43:32;100632.78;;;12.08;93.30
64908;BME280;64365;-1.756;110.040;2022-11-15T08:45:58;100624.78;;;12.08;93.46
64908;BME280;64365;-1.756;110.040;2022-11-15T08:48:25;100628.22;;;12.12;93.51
64908;BME280;64365;-1.756;110.040;2022-11-15T08:50:53;100614.50;;;12.13;93.21
64908;BME280;64365;-1.756;110.040;2022-11-15T08:53:22;100616.81;;;12.15;93.17
64908;BME280;64365;-1.756;110.040;2022-11-15T08:55:49;100618.72;;;12.18;93.37
64908;BME280;64365;-1.756;110.040;2022-11-15T08:58:15;100624.81;;;12.22;92.96
64908;BME280;64365;-1.756;110.040;2022-11-15T09:00:42;100628.25;;;12.26;92.89
64908;BME280;64365;-1.756;110.040;2022-11-15T09:03:08;100627.09;;;12.31;92.85
64908;BME280;64365;-1.756;110.040;2022-11-15T09:05:36;100626.72;;;12.47;93.40
64908;BME280;64365;-1.756;110.040;2022-11-15T09:08:03;100619.88;;;12.57;92.12
64908;BME280;64365;-1.756;110.040;2022-11-15T09:10:31;100610.75;;;12.58;91.05
64908;BME280;64365;-1.756;110.040;2022-11-15T09:12:57;100621.81;;;12.60;91.19
64908;BME280;64365;-1.756;110.040;2022-11-15T09:15:24;100618.34;;;12.70;90.65
64908;BME280;64365;-1.756;110.040;2022-11-15T09:17:51;100623.31;;;12.79;90.61
64908;BME280;64365;-1.756;110.040;2022-11-15T09:20:17;100607.22;;;13.19;92.42
64908;BME280;64365;-1.756;110.040;2022-11-15T09:22:44;100610.47;;;13.73;92.48
64908;BME280;64365;-1.756;110.040;2022-11-15T09:25:10;100608.81;;;14.01;87.46
64908;BME280;64365;-1.756;110.040;2022-11-15T09:27:38;100611.06;;;14.06;84.53
64908;BME280;64365;-1.756;110.040;2022-11-15T09:30:06;100601.91;;;14.04;83.30
64908;BME280;64365;-1.756;110.040;2022-11-15T09:32:32;100604.56;;;14.07;83.64
64908;BME280;64365;-1.756;110.040;2022-11-15T09:34:59;100596.75;;;14.31;83.55
64908;BME280;64365;-1.756;110.040;2022-11-15T09:37:25;100602.16;;;14.76;84.06
64908;BME280;64365;-1.756;110.040;2022-11-15T09:39:52;100607.66;;;15.35;82.71
64908;BME280;64365;-1.756;110.040;2022-11-15T09:42:30;100599.09;;;16.05;76.42
64908;BME280;64365;-1.756;110.040;2022-11-15T09:45:15;100597.38;;;16.19;72.73
64908;BME280;64365;-1.756;110.040;2022-11-15T09:50:41;100589.97;;;16.50;72.36
64908;BME280;64365;-1.756;110.040;2022-11-15T09:53:12;100589.41;;;17.06;71.27
64908;BME280;64365;-1.756;110.040;2022-11-15T09:55:46;100594.75;;;17.26;67.26
64908;BME280;64365;-1.756;110.040;2022-11-15T09:58:23;100598.13;;;17.30;65.18
64908;BME280;64365;-1.756;110.040;2022-11-15T10:00:54;100593.59;;;17.27;65.97
64908;BME280;64365;-1.756;110.040;2022-11-15T10:03:27;100584.06;;;17.43;65.46
64908;BME280;64365;-1.756;110.040;2022-11-15T10:05:57;100599.22;;;17.33;64.51
64908;BME280;64365;-1.756;110.040;2022-11-15T10:08:46;100597.84;;;17.05;64.68
64908;BME280;64365;-1.756;110.040;2022-11-15T10:11:18;100598.06;;;16.94;64.68
64908;BME280;64365;-1.756;110.040;2022-11-15T10:13:47;100584.25;;;16.72;64.64
64908;BME280;64365;-1.756;110.040;2022-11-15T10:16:26;100597.63;;;16.28;64.53
64908;BME280;64365;-1.756;110.040;2022-11-15T10:19:03;100580.63;;;16.11;65.64
64908;BME280;64365;-1.756;110.040;2022-11-15T10:21:40;100582.72;;;15.99;65.70
64908;BME280;64365;-1.756;110.040;2022-11-15T10:24:13;100580.53;;;15.63;65.22
64908;BME280;64365;-1.756;110.040;2022-11-15T10:26:46;100579.34;;;15.37;66.20
64908;BME280;64365;-1.756;110.040;2022-11-15T10:29:18;100571.88;;;15.21;66.91
64908;BME280;64365;-1.756;110.040;2022-11-15T10:31:46;100575.81;;;15.09;67.03
64908;BME280;64365;-1.756;110.040;2022-11-15T10:34:14;100570.16;;;15.04;67.99
64908;BME280;64365;-1.756;110.040;2022-11-15T10:36:44;100557.44;;;15.11;68.89
64908;BME280;64365;-1.756;110.040;2022-11-15T10:39:12;100554.53;;;15.33;68.69
64908;BME280;64365;-1.756;110.040;2022-11-15T10:41:40;100545.03;;;15.56;67.77
64908;BME280;64365;-1.756;110.040;2022-11-15T10:44:26;100537.34;;;15.58;66.06
64908;BME280;64365;-1.756;110.040;2022-11-15T10:47:22;100524.66;;;15.62;65.58
64908;BME280;64365;-1.756;110.040;2022-11-15T10:49:57;100534.69;;;15.58;65.60
64908;BME280;64365;-1.756;110.040;2022-11-15T10:52:24;100521.00;;;15.52;66.05
64908;BME280;64365;-1.756;110.040;2022-11-15T10:54:53;100521.44;;;15.47;65.93
64908;BME280;64365;-1.756;110.040;2022-11-15T10:57:23;100517.31;;;15.70;66.86
64908;BME280;64365;-1.756;110.040;2022-11-15T10:59:52;100513.84;;;15.96;65.79
64908;BME280;64365;-1.756;110.040;2022-11-15T11:02:45;100515.47;;;16.14;64.82
64908;BME280;64365;-1.756;110.040;2022-11-15T11:05:27;100510.25;;;16.07;63.49
64908;BME280;64365;-1.756;110.040;2022-11-15T11:07:58;100519.44;;;16.06;64.09
64908;BME280;64365;-1.756;110.040;2022-11-15T11:10:25;100499.84;;;16.32;64.01
64908;BME280;64365;-1.756;110.040;2022-11-15T11:12:52;100507.06;;;16.36;62.59
64908;BME280;64365;-1.756;110.040;2022-11-15T11:15:18;100509.66;;;16.43;62.40
64908;BME280;64365;-1.756;110.040;2022-11-15T11:17:57;100499.84;;;16.32;61.31
64908;BME280;64365;-1.756;110.040;2022-11-15T11:20:30;100501.78;;;16.32;61.36
64908;BME280;64365;-1.756;110.040;2022-11-15T11:23:05;100484.88;;;16.11;60.37
64908;BME280;64365;-1.756;110.040;2022-11-15T11:25:43;100507.78;;;15.92;61.24
64908;BME280;64365;-1.756;110.040;2022-11-15T11:28:21;100499.16;;;15.81;61.78
64908;BME280;64365;-1.756;110.040;2022-11-15T11:31:00;100499.69;;;15.69;61.99
64908;BME280;64365;-1.756;110.040;2022-11-15T11:33:33;100501.97;;;15.43;62.73
64908;BME280;64365;-1.756;110.040;2022-11-15T11:36:07;100500.25;;;15.29;63.27
64908;BME280;64365;-1.756;110.040;2022-11-15T11:38:47;100493.16;;;15.15;63.44
64908;BME280;64365;-1.756;110.040;2022-11-15T11:41:24;100491.72;;;15.07;64.12
64908;BME280;64365;-1.756;110.040;2022-11-15T11:44:07;100497.22;;;14.96;64.08
64908;BME280;64365;-1.756;110.040;2022-11-15T11:46:48;100474.38;;;14.88;64.53
64908;BME280;64365;-1.756;110.040;2022-11-15T11:49:19;100476.38;;;14.80;64.59
64908;BME280;64365;-1.756;110.040;2022-11-15T11:51:52;100486.34;;;14.76;64.96
64908;BME280;64365;-1.756;110.040;2022-11-15T11:54:22;100470.72;;;14.71;65.07
64908;BME280;64365;-1.756;110.040;2022-11-15T11:56:52;100456.66;;;14.67;65.41
64908;BME280;64365;-1.756;110.040;2022-11-15T11:59:29;100435.19;;;14.74;65.05
64908;BME280;64365;-1.756;110.040;2022-11-15T12:02:02;100435.19;;;14.74;65.01
64908;BME280;64365;-1.756;110.040;2022-11-15T12:04:40;100439.75;;;14.73;65.16
64908;BME280;64365;-1.756;110.040;2022-11-15T12:07:13;100434.88;;;14.68;64.82
64908;BME280;64365;-1.756;110.040;2022-11-15T12:09:46;100417.66;;;14.69;65.42
64908;BME280;64365;-1.756;110.040;2022-11-15T12:12:18;100428.72;;;14.71;64.94
64908;BME280;64365;-1.756;110.040;2022-11-15T12:14:50;100426.84;;;14.68;64.69
64908;BME280;64365;-1.756;110.040;2022-11-15T12:17:21;100418.84;;;14.64;64.43
64908;BME280;64365;-1.756;110.040;2022-11-15T12:19:51;100415.13;;;14.55;63.89
64908;BME280;64365;-1.756;110.040;2022-11-15T12:22:22;100409.09;;;14.47;64.27
64908;BME280;64365;-1.756;110.040;2022-11-15T12:24:55;100405.34;;;14.41;64.67
64908;BME280;64365;-1.756;110.040;2022-11-15T12:27:31;100391.66;;;14.35;64.71
64908;BME280;64365;-1.756;110.040;2022-11-15T12:30:03;100397.78;;;14.36;64.89
64908;BME280;64365;-1.756;110.040;2022-11-15T12:32:32;100381.00;;;14.31;64.70
64908;BME280;64365;-1.756;110.040;2022-11-15T12:35:02;100389.38;;;14.34;64.81
64908;BME280;64365;-1.756;110.040;2022-11-15T12:40:26;100379.56;;;14.23;65.44
64908;BME280;64365;-1.756;110.040;2022-11-15T12:45:40;100379.13;;;14.28;65.08
64908;BME280;64365;-1.756;110.040;2022-11-15T12:51:19;100360.72;;;14.34;65.62
64908;BME280;64365;-1.756;110.040;2022-11-15T12:53:46;100348.88;;;14.35;64.84
64908;BME280;64365;-1.756;110.040;2022-11-15T12:56:23;100351.47;;;14.42;64.61
64908;BME280;64365;-1.756;110.040;2022-11-15T12:58:54;100346.34;;;14.55;64.74
64908;BME280;64365;-1.756;110.040;2022-11-15T13:01:54;100341.19;;;14.72;64.23
64908;BME280;64365;-1.756;110.040;2022-11-15T13:04:25;100329.63;;;15.06;63.79